KBWI/BWI METAR and TAF weather

Enter ICAO airport designator
Station Type Date Time Source
KBWI METAR 2020/01/18 03:54 UTC NOAA

KBWI 180354Z 08003KT 10SM SCT220 M02/M14 A3069 RMK AO2 SLP394 T10221139


Station Type Date Time Source
KBWI Decoded METAR 2020/01/18 03:54 UTC NOAA

BALTIMORE-WASHINGTON INTERNATIONAL , MD, United States (KBWI) 39-10N 076-41W 59M
Jan 17, 2020 - 10:54 PM EST / 2020.01.18 0354 UTC
Wind: from the E (080 degrees) at 3 MPH (3 KT):0
Visibility: 10 mile(s):0
Sky conditions: partly cloudy
Temperature: 28.0 F (-2.2 C)
Dew Point: 7.0 F (-13.9 C)
Relative Humidity: 40%
Pressure (altimeter): 30.69 in. Hg (1039 hPa)
ob: KBWI 180354Z 08003KT 10SM SCT220 M02/M14 A3069 RMK AO2 SLP394 T10221139
cycle: 4

Station Type Date Time Source
KBWI TAF 2020/01/17 21:54 UTC NOAA

TAF
AMD KBWI 172050Z 1721/1824 34008KT P6SM FEW250
FM180500 00000KT P6SM BKN200
FM181200 14004KT 4SM -SN OVC040
FM181500 16007KT 3SM -SN OVC030
FM181800 17010G17KT 3SM -SNPL OVC030
FM182100 19011G18KT 1 1/2SM -PLRA OVC020

Example: see airport list